sensor_id;sensor_type;location;lat;lon;timestamp;temperature;humidity
74537;SHT31;63013;51.104;-115.370;2023-06-14T00:01:19;23.11;41.19
74537;SHT31;63013;51.104;-115.370;2023-06-14T00:03:47;23.11;41.42
74537;SHT31;63013;51.104;-115.370;2023-06-14T00:06:14;23.11;41.59
74537;SHT31;63013;51.104;-115.370;2023-06-14T00:08:42;23.11;41.67
74537;SHT31;63013;51.104;-115.370;2023-06-14T00:11:10;23.12;42.00
74537;SHT31;63013;51.104;-115.370;2023-06-14T00:13:37;23.13;42.37
74537;SHT31;63013;51.104;-115.370;2023-06-14T00:16:04;23.13;42.94
74537;SHT31;63013;51.104;-115.370;2023-06-14T00:18:31;23.13;43.70
74537;SHT31;63013;51.104;-115.370;2023-06-14T00:20:58;23.13;43.96
74537;SHT31;63013;51.104;-115.370;2023-06-14T00:23:27;23.14;43.90
74537;SHT31;63013;51.104;-115.370;2023-06-14T00:25:54;23.13;44.23
74537;SHT31;63013;51.104;-115.370;2023-06-14T00:28:21;23.14;44.46
74537;SHT31;63013;51.104;-115.370;2023-06-14T00:30:48;23.13;44.63
74537;SHT31;63013;51.104;-115.370;2023-06-14T00:33:16;23.14;44.63
74537;SHT31;63013;51.104;-115.370;2023-06-14T00:35:43;23.14;44.53
74537;SHT31;63013;51.104;-115.370;2023-06-14T00:38:10;23.14;44.76
74537;SHT31;63013;51.104;-115.370;2023-06-14T00:40:37;23.13;45.09
74537;SHT31;63013;51.104;-115.370;2023-06-14T00:43:04;23.12;45.38
74537;SHT31;63013;51.104;-115.370;2023-06-14T00:45:31;23.13;45.39
74537;SHT31;63013;51.104;-115.370;2023-06-14T00:48:01;23.13;45.54
74537;SHT31;63013;51.104;-115.370;2023-06-14T00:50:31;23.13;45.72
74537;SHT31;63013;51.104;-115.370;2023-06-14T00:53:00;23.13;45.97
74537;SHT31;63013;51.104;-115.370;2023-06-14T00:55:28;23.12;46.20
74537;SHT31;63013;51.104;-115.370;2023-06-14T00:57:56;23.11;46.10
74537;SHT31;63013;51.104;-115.370;2023-06-14T01:00:23;23.10;46.17
74537;SHT31;63013;51.104;-115.370;2023-06-14T01:02:50;23.09;46.19
74537;SHT31;63013;51.104;-115.370;2023-06-14T01:05:17;23.09;46.27
74537;SHT31;63013;51.104;-115.370;2023-06-14T01:13:35;23.07;46.42
74537;SHT31;63013;51.104;-115.370;2023-06-14T01:16:06;23.06;46.38
74537;SHT31;63013;51.104;-115.370;2023-06-14T01:18:34;23.06;46.53
74537;SHT31;63013;51.104;-115.370;2023-06-14T01:21:02;23.04;46.63
74537;SHT31;63013;51.104;-115.370;2023-06-14T01:23:31;23.03;46.73
74537;SHT31;63013;51.104;-115.370;2023-06-14T01:25:59;23.02;46.78
74537;SHT31;63013;51.104;-115.370;2023-06-14T01:28:31;23.01;46.77
74537;SHT31;63013;51.104;-115.370;2023-06-14T01:31:01;23.00;46.88
74537;SHT31;63013;51.104;-115.370;2023-06-14T01:33:31;23.00;46.91
74537;SHT31;63013;51.104;-115.370;2023-06-14T01:36:00;22.98;46.68
74537;SHT31;63013;51.104;-115.370;2023-06-14T01:38:32;22.94;46.61
74537;SHT31;63013;51.104;-115.370;2023-06-14T01:40:59;22.91;46.73
74537;SHT31;63013;51.104;-115.370;2023-06-14T01:43:29;22.88;46.88
74537;SHT31;63013;51.104;-115.370;2023-06-14T01:45:58;22.83;47.28
74537;SHT31;63013;51.104;-115.370;2023-06-14T01:48:27;22.79;47.34
74537;SHT31;63013;51.104;-115.370;2023-06-14T01:50:54;22.77;47.48
74537;SHT31;63013;51.104;-115.370;2023-06-14T01:53:21;22.75;47.71
74537;SHT31;63013;51.104;-115.370;2023-06-14T01:55:48;22.73;47.80
74537;SHT31;63013;51.104;-115.370;2023-06-14T01:58:15;22.72;47.74
74537;SHT31;63013;51.104;-115.370;2023-06-14T02:00:43;22.70;47.96
74537;SHT31;63013;51.104;-115.370;2023-06-14T02:03:11;22.69;47.76
74537;SHT31;63013;51.104;-115.370;2023-06-14T02:05:38;22.68;47.46
74537;SHT31;63013;51.104;-115.370;2023-06-14T02:08:06;22.68;47.37
74537;SHT31;63013;51.104;-115.370;2023-06-14T02:10:33;22.68;47.27
74537;SHT31;63013;51.104;-115.370;2023-06-14T02:13:00;22.68;47.28
74537;SHT31;63013;51.104;-115.370;2023-06-14T02:15:27;22.67;47.32
74537;SHT31;63013;51.104;-115.370;2023-06-14T02:18:02;22.67;47.23
74537;SHT31;63013;51.104;-115.370;2023-06-14T02:20:30;22.66;47.23
74537;SHT31;63013;51.104;-115.370;2023-06-14T02:22:57;22.64;47.48
74537;SHT31;63013;51.104;-115.370;2023-06-14T02:25:26;22.62;47.56
74537;SHT31;63013;51.104;-115.370;2023-06-14T02:27:54;22.60;47.59
74537;SHT31;63013;51.104;-115.370;2023-06-14T02:30:21;22.58;47.77
74537;SHT31;63013;51.104;-115.370;2023-06-14T02:32:48;22.57;47.84
74537;SHT31;63013;51.104;-115.370;2023-06-14T02:35:16;22.56;47.90
74537;SHT31;63013;51.104;-115.370;2023-06-14T02:37:43;22.54;48.19
74537;SHT31;63013;51.104;-115.370;2023-06-14T02:40:11;22.52;47.73
74537;SHT31;63013;51.104;-115.370;2023-06-14T02:42:39;22.52;47.45
74537;SHT31;63013;51.104;-115.370;2023-06-14T02:45:06;22.50;47.64
74537;SHT31;63013;51.104;-115.370;2023-06-14T02:47:34;22.49;47.66
74537;SHT31;63013;51.104;-115.370;2023-06-14T02:50:02;22.48;47.73
74537;SHT31;63013;51.104;-115.370;2023-06-14T02:52:29;22.46;47.76
74537;SHT31;63013;51.104;-115.370;2023-06-14T02:54:58;22.44;47.53
74537;SHT31;63013;51.104;-115.370;2023-06-14T02:57:25;22.40;46.52
74537;SHT31;63013;51.104;-115.370;2023-06-14T02:59:52;22.40;46.67
74537;SHT31;63013;51.104;-115.370;2023-06-14T03:02:20;22.40;46.72
74537;SHT31;63013;51.104;-115.370;2023-06-14T03:04:47;22.38;47.13
74537;SHT31;63013;51.104;-115.370;2023-06-14T03:07:14;22.37;47.47
74537;SHT31;63013;51.104;-115.370;2023-06-14T03:09:45;22.35;47.57
74537;SHT31;63013;51.104;-115.370;2023-06-14T03:12:12;22.34;47.65
74537;SHT31;63013;51.104;-115.370;2023-06-14T03:14:40;22.31;47.78
74537;SHT31;63013;51.104;-115.370;2023-06-14T03:17:07;22.31;47.83
74537;SHT31;63013;51.104;-115.370;2023-06-14T03:19:35;22.31;47.81
74537;SHT31;63013;51.104;-115.370;2023-06-14T03:22:03;22.30;47.68
74537;SHT31;63013;51.104;-115.370;2023-06-14T03:24:30;22.29;47.69
74537;SHT31;63013;51.104;-115.370;2023-06-14T03:27:02;22.30;47.73
74537;SHT31;63013;51.104;-115.370;2023-06-14T03:29:30;22.29;47.78
74537;SHT31;63013;51.104;-115.370;2023-06-14T03:31:57;22.28;47.80
74537;SHT31;63013;51.104;-115.370;2023-06-14T03:34:26;22.28;47.87
74537;SHT31;63013;51.104;-115.370;2023-06-14T03:36:53;22.26;48.08
74537;SHT31;63013;51.104;-115.370;2023-06-14T03:39:21;22.22;48.12
74537;SHT31;63013;51.104;-115.370;2023-06-14T03:41:48;22.17;48.21
74537;SHT31;63013;51.104;-115.370;2023-06-14T03:44:18;22.13;48.36
74537;SHT31;63013;51.104;-115.370;2023-06-14T03:46:46;22.11;48.54
74537;SHT31;63013;51.104;-115.370;2023-06-14T03:49:13;22.10;48.68
74537;SHT31;63013;51.104;-115.370;2023-06-14T03:51:42;22.11;48.79
74537;SHT31;63013;51.104;-115.370;2023-06-14T03:54:09;22.10;48.79
74537;SHT31;63013;51.104;-115.370;2023-06-14T03:56:36;22.11;48.72
74537;SHT31;63013;51.104;-115.370;2023-06-14T03:59:03;22.10;48.74
74537;SHT31;63013;51.104;-115.370;2023-06-14T04:01:30;22.06;48.82
74537;SHT31;63013;51.104;-115.370;2023-06-14T04:03:59;22.02;48.75
74537;SHT31;63013;51.104;-115.370;2023-06-14T04:06:26;21.97;48.56
74537;SHT31;63013;51.104;-115.370;2023-06-14T04:08:58;21.92;48.89
74537;SHT31;63013;51.104;-115.370;2023-06-14T04:11:30;21.88;49.10
74537;SHT31;63013;51.104;-115.370;2023-06-14T04:13:57;21.82;49.22
74537;SHT31;63013;51.104;-115.370;2023-06-14T04:16:24;21.78;49.59
74537;SHT31;63013;51.104;-115.370;2023-06-14T04:18:54;21.76;49.86
74537;SHT31;63013;51.104;-115.370;2023-06-14T04:21:23;21.71;49.98
74537;SHT31;63013;51.104;-115.370;2023-06-14T04:23:53;21.69;49.95
74537;SHT31;63013;51.104;-115.370;2023-06-14T04:26:21;21.66;50.11
74537;SHT31;63013;51.104;-115.370;2023-06-14T04:28:55;21.63;50.12
74537;SHT31;63013;51.104;-115.370;2023-06-14T04:31:28;21.61;50.02
74537;SHT31;63013;51.104;-115.370;2023-06-14T04:33:59;21.59;49.95
74537;SHT31;63013;51.104;-115.370;2023-06-14T04:36:26;21.57;50.03
74537;SHT31;63013;51.104;-115.370;2023-06-14T04:38:53;21.56;49.97
74537;SHT31;63013;51.104;-115.370;2023-06-14T04:41:20;21.54;49.98
74537;SHT31;63013;51.104;-115.370;2023-06-14T04:43:49;21.51;49.78
74537;SHT31;63013;51.104;-115.370;2023-06-14T04:46:19;21.48;49.74
74537;SHT31;63013;51.104;-115.370;2023-06-14T04:48:47;21.45;49.75
74537;SHT31;63013;51.104;-115.370;2023-06-14T04:51:16;21.44;49.60
74537;SHT31;63013;51.104;-115.370;2023-06-14T04:53:46;21.42;49.56
74537;SHT31;63013;51.104;-115.370;2023-06-14T04:56:15;21.43;49.59
74537;SHT31;63013;51.104;-115.370;2023-06-14T04:58:42;21.42;49.76
74537;SHT31;63013;51.104;-115.370;2023-06-14T05:01:09;21.42;49.78
74537;SHT31;63013;51.104;-115.370;2023-06-14T05:03:38;21.42;49.79
74537;SHT31;63013;51.104;-115.370;2023-06-14T05:06:06;21.41;49.71
74537;SHT31;63013;51.104;-115.370;2023-06-14T05:08:33;21.41;49.69
74537;SHT31;63013;51.104;-115.370;2023-06-14T05:11:00;21.39;49.66
74537;SHT31;63013;51.104;-115.370;2023-06-14T05:13:28;21.38;49.83
74537;SHT31;63013;51.104;-115.370;2023-06-14T05:15:54;21.39;49.79
74537;SHT31;63013;51.104;-115.370;2023-06-14T05:18:22;21.38;49.80
74537;SHT31;63013;51.104;-115.370;2023-06-14T05:20:50;21.38;49.73
74537;SHT31;63013;51.104;-115.370;2023-06-14T05:23:17;21.38;49.69
74537;SHT31;63013;51.104;-115.370;2023-06-14T05:25:45;21.37;49.70
74537;SHT31;63013;51.104;-115.370;2023-06-14T05:28:12;21.35;49.57
74537;SHT31;63013;51.104;-115.370;2023-06-14T05:30:39;21.34;49.58
74537;SHT31;63013;51.104;-115.370;2023-06-14T05:33:07;21.32;49.48
74537;SHT31;63013;51.104;-115.370;2023-06-14T05:35:34;21.30;49.42
74537;SHT31;63013;51.104;-115.370;2023-06-14T05:38:01;21.28;49.40
74537;SHT31;63013;51.104;-115.370;2023-06-14T05:40:28;21.27;49.36
74537;SHT31;63013;51.104;-115.370;2023-06-14T05:42:56;21.24;49.32
74537;SHT31;63013;51.104;-115.370;2023-06-14T05:45:23;21.22;49.32
74537;SHT31;63013;51.104;-115.370;2023-06-14T05:47:50;21.21;49.40
74537;SHT31;63013;51.104;-115.370;2023-06-14T05:50:20;21.18;49.42
74537;SHT31;63013;51.104;-115.370;2023-06-14T05:52:47;21.17;49.54
74537;SHT31;63013;51.104;-115.370;2023-06-14T05:55:15;21.15;49.60
74537;SHT31;63013;51.104;-115.370;2023-06-14T05:57:42;21.13;49.67
74537;SHT31;63013;51.104;-115.370;2023-06-14T06:00:10;21.12;49.50
74537;SHT31;63013;51.104;-115.370;2023-06-14T06:02:40;21.11;49.51
74537;SHT31;63013;51.104;-115.370;2023-06-14T06:05:11;21.11;49.63
74537;SHT31;63013;51.104;-115.370;2023-06-14T06:07:39;21.09;49.68
74537;SHT31;63013;51.104;-115.370;2023-06-14T06:10:07;21.08;49.46
74537;SHT31;63013;51.104;-115.370;2023-06-14T06:12:34;21.04;49.40
74537;SHT31;63013;51.104;-115.370;2023-06-14T06:15:01;21.03;49.33
74537;SHT31;63013;51.104;-115.370;2023-06-14T06:17:29;21.02;49.31
74537;SHT31;63013;51.104;-115.370;2023-06-14T06:19:56;21.01;49.40
74537;SHT31;63013;51.104;-115.370;2023-06-14T06:22:23;21.00;49.48
74537;SHT31;63013;51.104;-115.370;2023-06-14T06:24:50;21.00;49.59
74537;SHT31;63013;51.104;-115.370;2023-06-14T06:27:17;20.99;49.62
74537;SHT31;63013;51.104;-115.370;2023-06-14T06:29:45;20.98;49.64
74537;SHT31;63013;51.104;-115.370;2023-06-14T06:32:14;21.00;49.63
74537;SHT31;63013;51.104;-115.370;2023-06-14T06:34:41;20.99;49.62
74537;SHT31;63013;51.104;-115.370;2023-06-14T06:37:09;21.00;49.46
74537;SHT31;63013;51.104;-115.370;2023-06-14T06:39:37;21.01;49.40
74537;SHT31;63013;51.104;-115.370;2023-06-14T06:42:04;21.02;49.37
74537;SHT31;63013;51.104;-115.370;2023-06-14T06:44:32;21.02;49.30
74537;SHT31;63013;51.104;-115.370;2023-06-14T06:46:59;21.02;49.20
74537;SHT31;63013;51.104;-115.370;2023-06-14T06:49:27;21.02;49.21
74537;SHT31;63013;51.104;-115.370;2023-06-14T06:52:01;21.01;49.11
74537;SHT31;63013;51.104;-115.370;2023-06-14T06:54:31;21.01;49.16
74537;SHT31;63013;51.104;-115.370;2023-06-14T06:56:59;20.99;49.15
74537;SHT31;63013;51.104;-115.370;2023-06-14T06:59:29;20.97;49.15
74537;SHT31;63013;51.104;-115.370;2023-06-14T07:01:56;20.94;49.08
74537;SHT31;63013;51.104;-115.370;2023-06-14T07:04:23;20.91;49.11
74537;SHT31;63013;51.104;-115.370;2023-06-14T07:06:50;20.88;49.11
74537;SHT31;63013;51.104;-115.370;2023-06-14T07:09:18;20.85;49.16
74537;SHT31;63013;51.104;-115.370;2023-06-14T07:11:46;20.83;49.25
74537;SHT31;63013;51.104;-115.370;2023-06-14T07:14:13;20.81;49.30
74537;SHT31;63013;51.104;-115.370;2023-06-14T07:16:40;20.79;49.33
74537;SHT31;63013;51.104;-115.370;2023-06-14T07:19:08;20.75;49.41
74537;SHT31;63013;51.104;-115.370;2023-06-14T07:21:35;20.73;49.40
74537;SHT31;63013;51.104;-115.370;2023-06-14T07:24:05;20.70;49.40
74537;SHT31;63013;51.104;-115.370;2023-06-14T07:26:33;20.65;49.40
74537;SHT31;63013;51.104;-115.370;2023-06-14T07:29:01;20.64;49.62
74537;SHT31;63013;51.104;-115.370;2023-06-14T07:31:28;20.63;49.77
74537;SHT31;63013;51.104;-115.370;2023-06-14T07:33:55;20.62;49.92
74537;SHT31;63013;51.104;-115.370;2023-06-14T07:36:22;20.60;49.94
74537;SHT31;63013;51.104;-115.370;2023-06-14T07:38:49;20.58;49.83
74537;SHT31;63013;51.104;-115.370;2023-06-14T07:41:17;20.57;49.78
74537;SHT31;63013;51.104;-115.370;2023-06-14T07:43:44;20.54;49.72
74537;SHT31;63013;51.104;-115.370;2023-06-14T07:46:11;20.52;49.91
74537;SHT31;63013;51.104;-115.370;2023-06-14T07:48:38;20.49;49.83
74537;SHT31;63013;51.104;-115.370;2023-06-14T07:51:06;20.48;49.96
74537;SHT31;63013;51.104;-115.370;2023-06-14T07:53:33;20.46;49.97
74537;SHT31;63013;51.104;-115.370;2023-06-14T07:56:00;20.45;49.93
74537;SHT31;63013;51.104;-115.370;2023-06-14T07:58:28;20.43;49.91
74537;SHT31;63013;51.104;-115.370;2023-06-14T08:00:54;20.42;49.97
74537;SHT31;63013;51.104;-115.370;2023-06-14T08:03:21;20.40;49.92
74537;SHT31;63013;51.104;-115.370;2023-06-14T08:05:49;20.39;49.99
74537;SHT31;63013;51.104;-115.370;2023-06-14T08:08:17;20.38;49.99
74537;SHT31;63013;51.104;-115.370;2023-06-14T08:10:44;20.36;50.01
74537;SHT31;63013;51.104;-115.370;2023-06-14T08:13:11;20.34;50.12
74537;SHT31;63013;51.104;-115.370;2023-06-14T08:15:38;20.33;50.24
74537;SHT31;63013;51.104;-115.370;2023-06-14T08:18:05;20.32;50.27
74537;SHT31;63013;51.104;-115.370;2023-06-14T08:20:32;20.32;50.29
74537;SHT31;63013;51.104;-115.370;2023-06-14T08:23:02;20.31;50.24
74537;SHT31;63013;51.104;-115.370;2023-06-14T08:25:29;20.30;50.22
74537;SHT31;63013;51.104;-115.370;2023-06-14T08:27:56;20.29;50.28
74537;SHT31;63013;51.104;-115.370;2023-06-14T08:30:25;20.28;50.28
74537;SHT31;63013;51.104;-115.370;2023-06-14T08:32:52;20.27;50.30
74537;SHT31;63013;51.104;-115.370;2023-06-14T08:35:22;20.26;50.34
74537;SHT31;63013;51.104;-115.370;2023-06-14T08:37:49;20.25;50.36
74537;SHT31;63013;51.104;-115.370;2023-06-14T08:40:20;20.23;50.39
74537;SHT31;63013;51.104;-115.370;2023-06-14T08:42:53;20.22;50.34
74537;SHT31;63013;51.104;-115.370;2023-06-14T08:45:21;20.20;50.33
74537;SHT31;63013;51.104;-115.370;2023-06-14T08:47:50;20.19;50.39
74537;SHT31;63013;51.104;-115.370;2023-06-14T08:50:26;20.18;50.45
74537;SHT31;63013;51.104;-115.370;2023-06-14T08:53:00;20.16;50.44
74537;SHT31;63013;51.104;-115.370;2023-06-14T08:55:29;20.15;50.43
74537;SHT31;63013;51.104;-115.370;2023-06-14T08:57:58;20.14;50.43
74537;SHT31;63013;51.104;-115.370;2023-06-14T09:00:26;20.13;50.35
74537;SHT31;63013;51.104;-115.370;2023-06-14T09:02:54;20.10;50.31
74537;SHT31;63013;51.104;-115.370;2023-06-14T09:05:25;20.09;50.30
74537;SHT31;63013;51.104;-115.370;2023-06-14T09:07:53;20.08;50.28
74537;SHT31;63013;51.104;-115.370;2023-06-14T09:10:22;20.06;50.26
74537;SHT31;63013;51.104;-115.370;2023-06-14T09:12:51;20.04;50.30
74537;SHT31;63013;51.104;-115.370;2023-06-14T09:15:18;20.02;50.31
74537;SHT31;63013;51.104;-115.370;2023-06-14T09:17:46;20.01;50.32
74537;SHT31;63013;51.104;-115.370;2023-06-14T09:20:13;19.99;50.39
74537;SHT31;63013;51.104;-115.370;2023-06-14T09:22:44;19.97;50.41
74537;SHT31;63013;51.104;-115.370;2023-06-14T09:25:11;19.97;50.43
74537;SHT31;63013;51.104;-115.370;2023-06-14T09:27:41;19.96;50.51
74537;SHT31;63013;51.104;-115.370;2023-06-14T09:30:09;19.96;50.54
74537;SHT31;63013;51.104;-115.370;2023-06-14T09:32:39;19.94;50.56
74537;SHT31;63013;51.104;-115.370;2023-06-14T09:35:07;19.94;50.55
74537;SHT31;63013;51.104;-115.370;2023-06-14T09:37:35;19.93;50.51
74537;SHT31;63013;51.104;-115.370;2023-06-14T09:40:05;19.92;50.45
74537;SHT31;63013;51.104;-115.370;2023-06-14T09:42:33;19.91;50.43
74537;SHT31;63013;51.104;-115.370;2023-06-14T09:45:01;19.88;50.54
74537;SHT31;63013;51.104;-115.370;2023-06-14T09:47:30;19.88;50.60
74537;SHT31;63013;51.104;-115.370;2023-06-14T09:49:57;19.86;50.83
74537;SHT31;63013;51.104;-115.370;2023-06-14T09:52:25;19.86;50.91
74537;SHT31;63013;51.104;-115.370;2023-06-14T09:54:55;19.85;50.84
74537;SHT31;63013;51.104;-115.370;2023-06-14T09:57:26;19.83;50.84
74537;SHT31;63013;51.104;-115.370;2023-06-14T09:59:58;19.82;50.94
74537;SHT31;63013;51.104;-115.370;2023-06-14T10:02:35;19.82;51.00
74537;SHT31;63013;51.104;-115.370;2023-06-14T10:07:44;19.83;51.07
74537;SHT31;63013;51.104;-115.370;2023-06-14T10:10:21;19.82;51.01
74537;SHT31;63013;51.104;-115.370;2023-06-14T10:12:48;19.80;50.94
74537;SHT31;63013;51.104;-115.370;2023-06-14T10:16:00;19.78;50.99
74537;SHT31;63013;51.104;-115.370;2023-06-14T10:24:10;19.74;51.11
74537;SHT31;63013;51.104;-115.370;2023-06-14T10:26:51;19.73;51.17
74537;SHT31;63013;51.104;-115.370;2023-06-14T10:29:22;19.72;51.22
74537;SHT31;63013;51.104;-115.370;2023-06-14T10:31:50;19.71;51.25
74537;SHT31;63013;51.104;-115.370;2023-06-14T10:34:29;19.69;51.32
74537;SHT31;63013;51.104;-115.370;2023-06-14T10:39:40;19.68;51.36
74537;SHT31;63013;51.104;-115.370;2023-06-14T10:42:10;19.67;51.29
74537;SHT31;63013;51.104;-115.370;2023-06-14T10:44:45;19.68;51.30
74537;SHT31;63013;51.104;-115.370;2023-06-14T10:50:06;19.68;51.20
74537;SHT31;63013;51.104;-115.370;2023-06-14T10:52:42;19.67;51.18
74537;SHT31;63013;51.104;-115.370;2023-06-14T10:55:11;19.65;51.24
74537;SHT31;63013;51.104;-115.370;2023-06-14T10:57:51;19.64;51.22
74537;SHT31;63013;51.104;-115.370;2023-06-14T11:00:24;19.64;51.26
74537;SHT31;63013;51.104;-115.370;2023-06-14T11:06:23;19.61;51.31
74537;SHT31;63013;51.104;-115.370;2023-06-14T11:09:14;19.61;51.42
74537;SHT31;63013;51.104;-115.370;2023-06-14T11:11:49;19.60;51.40
74537;SHT31;63013;51.104;-115.370;2023-06-14T11:14:22;19.59;51.40
74537;SHT31;63013;51.104;-115.370;2023-06-14T11:16:49;19.58;51.43
74537;SHT31;63013;51.104;-115.370;2023-06-14T11:19:16;19.57;51.48
74537;SHT31;63013;51.104;-115.370;2023-06-14T11:21:46;19.56;51.58
74537;SHT31;63013;51.104;-115.370;2023-06-14T11:24:17;19.56;51.60
74537;SHT31;63013;51.104;-115.370;2023-06-14T11:26:46;19.56;51.62
74537;SHT31;63013;51.104;-115.370;2023-06-14T11:29:15;19.55;51.61
74537;SHT31;63013;51.104;-115.370;2023-06-14T11:31:43;19.55;51.60
74537;SHT31;63013;51.104;-115.370;2023-06-14T11:34:13;19.54;51.60
74537;SHT31;63013;51.104;-115.370;2023-06-14T11:36:41;19.53;51.62
74537;SHT31;63013;51.104;-115.370;2023-06-14T11:39:09;19.52;51.67
74537;SHT31;63013;51.104;-115.370;2023-06-14T11:41:37;19.51;51.65
74537;SHT31;63013;51.104;-115.370;2023-06-14T11:44:09;19.51;51.74
74537;SHT31;63013;51.104;-115.370;2023-06-14T11:46:37;19.51;51.80
74537;SHT31;63013;51.104;-115.370;2023-06-14T11:49:06;19.51;51.80
74537;SHT31;63013;51.104;-115.370;2023-06-14T11:51:35;19.51;51.80
74537;SHT31;63013;51.104;-115.370;2023-06-14T11:54:03;19.51;51.77
74537;SHT31;63013;51.104;-115.370;2023-06-14T11:56:33;19.49;51.97
74537;SHT31;63013;51.104;-115.370;2023-06-14T11:59:02;19.46;52.18
74537;SHT31;63013;51.104;-115.370;2023-06-14T12:01:31;19.44;52.20
74537;SHT31;63013;51.104;-115.370;2023-06-14T12:04:01;19.44;52.39
74537;SHT31;63013;51.104;-115.370;2023-06-14T12:06:29;19.42;52.57
74537;SHT31;63013;51.104;-115.370;2023-06-14T12:09:07;19.40;52.51
74537;SHT31;63013;51.104;-115.370;2023-06-14T12:11:43;19.39;52.48
74537;SHT31;63013;51.104;-115.370;2023-06-14T12:14:11;19.39;52.44
74537;SHT31;63013;51.104;-115.370;2023-06-14T12:16:38;19.39;52.38
74537;SHT31;63013;51.104;-115.370;2023-06-14T12:19:15;19.39;52.45
74537;SHT31;63013;51.104;-115.370;2023-06-14T12:21:45;19.39;52.55
74537;SHT31;63013;51.104;-115.370;2023-06-14T12:24:17;19.39;52.51
74537;SHT31;63013;51.104;-115.370;2023-06-14T12:26:45;19.38;52.50
74537;SHT31;63013;51.104;-115.370;2023-06-14T12:29:12;19.39;52.53
74537;SHT31;63013;51.104;-115.370;2023-06-14T12:31:40;19.38;52.56
74537;SHT31;63013;51.104;-115.370;2023-06-14T12:34:07;19.38;52.62
74537;SHT31;63013;51.104;-115.370;2023-06-14T12:36:34;19.37;52.70
74537;SHT31;63013;51.104;-115.370;2023-06-14T12:39:07;19.35;52.71
74537;SHT31;63013;51.104;-115.370;2023-06-14T12:41:34;19.33;52.85
74537;SHT31;63013;51.104;-115.370;2023-06-14T12:44:02;19.32;52.94
74537;SHT31;63013;51.104;-115.370;2023-06-14T12:46:33;19.29;52.90
74537;SHT31;63013;51.104;-115.370;2023-06-14T12:49:05;19.27;52.97
74537;SHT31;63013;51.104;-115.370;2023-06-14T12:51:34;19.26;53.01
74537;SHT31;63013;51.104;-115.370;2023-06-14T12:54:01;19.24;53.07
74537;SHT31;63013;51.104;-115.370;2023-06-14T12:56:28;19.24;53.05
74537;SHT31;63013;51.104;-115.370;2023-06-14T12:58:55;19.24;53.10
74537;SHT31;63013;51.104;-115.370;2023-06-14T13:01:23;19.23;53.12
74537;SHT31;63013;51.104;-115.370;2023-06-14T13:03:50;19.24;53.22
74537;SHT31;63013;51.104;-115.370;2023-06-14T13:06:22;19.24;53.18
74537;SHT31;63013;51.104;-115.370;2023-06-14T13:08:50;19.24;53.21
74537;SHT31;63013;51.104;-115.370;2023-06-14T13:11:20;19.24;53.12
74537;SHT31;63013;51.104;-115.370;2023-06-14T13:13:47;19.24;53.12
74537;SHT31;63013;51.104;-115.370;2023-06-14T13:16:14;19.24;53.19
74537;SHT31;63013;51.104;-115.370;2023-06-14T13:18:41;19.22;53.20
74537;SHT31;63013;51.104;-115.370;2023-06-14T13:21:09;19.21;53.24
74537;SHT31;63013;51.104;-115.370;2023-06-14T13:23:36;19.20;53.16
74537;SHT31;63013;51.104;-115.370;2023-06-14T13:26:03;19.19;53.18
74537;SHT31;63013;51.104;-115.370;2023-06-14T13:28:30;19.18;53.25
74537;SHT31;63013;51.104;-115.370;2023-06-14T13:30:58;19.19;53.18
74537;SHT31;63013;51.104;-115.370;2023-06-14T13:33:26;19.18;53.07
74537;SHT31;63013;51.104;-115.370;2023-06-14T13:35:53;19.18;52.89
74537;SHT31;63013;51.104;-115.370;2023-06-14T13:38:20;19.18;52.76
74537;SHT31;63013;51.104;-115.370;2023-06-14T13:40:46;19.19;52.74
74537;SHT31;63013;51.104;-115.370;2023-06-14T13:43:13;19.18;52.91
74537;SHT31;63013;51.104;-115.370;2023-06-14T13:45:40;19.18;53.00
74537;SHT31;63013;51.104;-115.370;2023-06-14T13:48:07;19.17;53.00
74537;SHT31;63013;51.104;-115.370;2023-06-14T13:50:35;19.15;53.07
74537;SHT31;63013;51.104;-115.370;2023-06-14T13:53:02;19.13;53.10
74537;SHT31;63013;51.104;-115.370;2023-06-14T13:55:30;19.13;53.06
74537;SHT31;63013;51.104;-115.370;2023-06-14T13:57:57;19.13;53.07
74537;SHT31;63013;51.104;-115.370;2023-06-14T14:00:24;19.13;53.11
74537;SHT31;63013;51.104;-115.370;2023-06-14T14:02:51;19.12;53.03
74537;SHT31;63013;51.104;-115.370;2023-06-14T14:05:18;19.12;53.01
74537;SHT31;63013;51.104;-115.370;2023-06-14T14:07:46;19.11;52.93
74537;SHT31;63013;51.104;-115.370;2023-06-14T14:10:13;19.10;52.97
74537;SHT31;63013;51.104;-115.370;2023-06-14T14:12:40;19.09;52.88
74537;SHT31;63013;51.104;-115.370;2023-06-14T14:15:07;19.07;52.83
74537;SHT31;63013;51.104;-115.370;2023-06-14T14:17:38;19.06;52.77
74537;SHT31;63013;51.104;-115.370;2023-06-14T14:20:06;19.06;52.64
74537;SHT31;63013;51.104;-115.370;2023-06-14T14:22:33;19.05;52.62
74537;SHT31;63013;51.104;-115.370;2023-06-14T14:25:00;19.03;52.68
74537;SHT31;63013;51.104;-115.370;2023-06-14T14:27:27;19.01;52.59
74537;SHT31;63013;51.104;-115.370;2023-06-14T14:29:54;18.99;52.47
74537;SHT31;63013;51.104;-115.370;2023-06-14T14:32:21;18.97;52.27
74537;SHT31;63013;51.104;-115.370;2023-06-14T14:34:48;18.94;52.19
74537;SHT31;63013;51.104;-115.370;2023-06-14T14:37:16;18.90;52.36
74537;SHT31;63013;51.104;-115.370;2023-06-14T14:39:44;18.88;52.20
74537;SHT31;63013;51.104;-115.370;2023-06-14T14:42:11;18.84;52.46
74537;SHT31;63013;51.104;-115.370;2023-06-14T14:44:38;18.83;52.69
74537;SHT31;63013;51.104;-115.370;2023-06-14T14:47:06;18.81;52.81
74537;SHT31;63013;51.104;-115.370;2023-06-14T14:49:34;18.81;52.82
74537;SHT31;63013;51.104;-115.370;2023-06-14T14:52:01;18.80;52.82
74537;SHT31;63013;51.104;-115.370;2023-06-14T14:54:28;18.80;52.71
74537;SHT31;63013;51.104;-115.370;2023-06-14T14:56:55;18.79;52.69
74537;SHT31;63013;51.104;-115.370;2023-06-14T14:59:22;18.76;52.54
74537;SHT31;63013;51.104;-115.370;2023-06-14T15:01:49;18.73;52.66
74537;SHT31;63013;51.104;-115.370;2023-06-14T15:04:17;18.69;52.93
74537;SHT31;63013;51.104;-115.370;2023-06-14T15:06:44;18.66;53.24
74537;SHT31;63013;51.104;-115.370;2023-06-14T15:09:12;18.64;53.42
74537;SHT31;63013;51.104;-115.370;2023-06-14T15:11:39;18.61;53.45
74537;SHT31;63013;51.104;-115.370;2023-06-14T15:14:06;18.58;53.15
74537;SHT31;63013;51.104;-115.370;2023-06-14T15:16:33;18.56;53.27
74537;SHT31;63013;51.104;-115.370;2023-06-14T15:19:00;18.53;53.45